Time;durP1;ratioP1;P1;durP2;ratioP2;P2;SDS_P1;SDS_P2;PMS_P1;PMS_P2;Temp;Humidity;BMP_temperature;BMP_pressure;BME280_temperature;BME280_humidity;BME280_pressure;Samples;Min_cycle;Max_cycle;Signal;HPM_P1;HPM_P2
2022/05/29 00:01:47;;;;;;;2.73;0.90;;;;;;;9.45;55.42;98722.44;5133620;27;41705;-78
2022/05/29 00:04:15;;;;;;;1.70;0.80;;;;;;;9.46;55.31;98720.66;5133610;27;42788;-78
2022/05/29 00:06:46;;;;;;;0.80;0.80;;;;;;;9.46;55.39;98724.16;5152504;27;40348;-76
2022/05/29 00:09:18;;;;;;;2.83;1.10;;;;;;;9.46;55.09;98726.78;5133882;27;41961;-75
2022/05/29 00:11:47;;;;;;;1.00;0.70;;;;;;;9.44;54.68;98723.38;5150402;27;42184;-77
2022/05/29 00:14:15;;;;;;;0.80;0.80;;;;;;;9.42;54.69;98727.91;5148172;27;42005;-77
2022/05/29 00:16:42;;;;;;;1.33;0.73;;;;;;;9.39;54.39;98729.91;5152314;27;40061;-77
2022/05/29 00:19:11;;;;;;;1.47;0.90;;;;;;;9.34;54.70;98720.47;5151860;27;41678;-75
2022/05/29 00:21:39;;;;;;;1.40;0.80;;;;;;;9.33;54.55;98723.19;5150551;27;43283;-76
2022/05/29 00:24:08;;;;;;;1.50;0.90;;;;;;;9.21;54.37;98713.34;5150745;27;42332;-76
2022/05/29 00:26:36;;;;;;;1.80;0.70;;;;;;;9.29;54.43;98727.78;5152216;27;40670;-78
2022/05/29 00:29:05;;;;;;;0.90;0.77;;;;;;;9.26;54.58;98728.00;5133203;27;42315;-76
2022/05/29 00:31:33;;;;;;;1.23;0.77;;;;;;;9.23;54.77;98722.03;5150938;27;42852;-75
2022/05/29 00:34:01;;;;;;;3.47;1.03;;;;;;;9.22;55.42;98709.75;5150529;27;41939;-77
2022/05/29 00:36:32;;;;;;;2.03;0.73;;;;;;;9.20;55.72;98703.72;5168633;27;39985;-77
2022/05/29 00:39:00;;;;;;;2.40;1.10;;;;;;;9.18;56.63;98687.09;5147406;27;41503;-75
2022/05/29 00:41:31;;;;;;;1.23;0.70;;;;;;;9.18;57.34;98689.75;5150881;27;42840;-76
2022/05/29 00:44:16;;;;;;;0.80;0.80;;;;;;;9.16;56.73;98691.63;5147452;27;43235;-76
2022/05/29 00:46:46;;;;;;;1.97;0.70;;;;;;;9.15;56.38;98697.88;5149761;27;39605;-77
2022/05/29 00:49:15;;;;;;;1.30;0.77;;;;;;;9.12;56.25;98703.31;5151674;27;41767;-75
2022/05/29 00:51:54;;;;;;;1.23;0.90;;;;;;;9.08;56.13;98702.66;5154384;27;42667;-74
2022/05/29 00:54:22;;;;;;;1.43;0.80;;;;;;;9.05;56.04;98701.97;5152295;27;41923;-75
2022/05/29 00:56:52;;;;;;;1.83;1.00;;;;;;;8.97;56.34;98692.72;5152633;27;38912;-77
2022/05/29 00:59:23;;;;;;;0.80;0.80;;;;;;;8.98;56.46;98696.22;5151307;27;40453;-75
2022/05/29 01:01:51;;;;;;;1.30;0.87;;;;;;;8.85;56.31;98685.50;5150987;27;43548;-77
2022/05/29 01:04:20;;;;;;;0.83;0.70;;;;;;;8.81;56.09;98678.69;5153055;27;41797;-75
2022/05/29 01:06:49;;;;;;;1.67;1.10;;;;;;;8.90;56.32;98704.56;5150011;27;39117;-76
2022/05/29 01:09:17;;;;;;;1.80;0.90;;;;;;;8.79;56.24;98685.00;5133443;27;42223;-77
2022/05/29 01:11:59;;;;;;;1.97;1.33;;;;;;;8.86;56.42;98703.06;5153241;27;42679;-75
2022/05/29 01:14:37;;;;;;;1.10;1.00;;;;;;;8.74;56.50;98687.94;5151297;27;42044;-75
2022/05/29 01:17:12;;;;;;;0.73;0.70;;;;;;;8.82;56.83;98704.16;5151362;27;40842;-75
2022/05/29 01:19:57;;;;;;;1.30;1.10;;;;;;;8.80;56.96;98694.63;5136010;27;41715;-79
2022/05/29 01:22:56;;;;;;;2.03;1.10;;;;;;;8.78;57.34;98686.78;5153377;27;42576;-77
2022/05/29 01:25:54;;;;;;;0.83;0.83;;;;;;;8.74;57.20;98692.34;5140203;27;41909;-77
2022/05/29 01:28:42;;;;;;;1.23;1.00;;;;;;;8.70;57.29;98686.41;5154489;27;39905;-77
2022/05/29 01:31:15;;;;;;;0.80;0.80;;;;;;;8.67;57.16;98694.47;5136601;27;41916;-77
2022/05/29 01:33:59;;;;;;;1.57;1.00;;;;;;;8.63;57.44;98690.34;5153695;27;43108;-75
2022/05/29 01:36:34;;;;;;;1.63;1.00;;;;;;;8.59;57.17;98694.06;5151942;27;41963;-80
2022/05/29 01:39:10;;;;;;;0.80;0.80;;;;;;;8.26;57.41;98646.69;5167613;27;40035;-75
2022/05/29 01:41:45;;;;;;;1.10;1.03;;;;;;;8.50;57.54;98691.97;5150711;27;42630;-79
2022/05/29 01:44:20;;;;;;;1.50;1.00;;;;;;;8.46;57.85;98687.78;5151529;27;42841;-78
2022/05/29 01:46:54;;;;;;;0.67;0.67;;;;;;;8.43;58.40;98680.91;5136060;27;41273;-75
2022/05/29 01:49:27;;;;;;;1.10;0.93;;;;;;;8.41;58.26;98676.63;5153258;27;39049;-78
2022/05/29 01:52:00;;;;;;;1.70;1.03;;;;;;;8.40;57.91;98680.25;5136072;27;40537;-78
2022/05/29 01:54:33;;;;;;;1.60;1.10;;;;;;;8.32;58.29;98670.09;5135657;27;41852;-76
2022/05/29 01:57:06;;;;;;;1.30;0.93;;;;;;;8.28;58.37;98669.38;5152348;27;42894;-77
2022/05/29 01:59:41;;;;;;;1.60;1.10;;;;;;;8.37;59.17;98683.03;5135676;27;38788;-75
2022/05/29 02:02:12;;;;;;;1.20;1.10;;;;;;;8.21;61.16;98641.66;5153313;27;41078;-75
2022/05/29 02:04:45;;;;;;;3.10;1.20;;;;;;;8.21;60.67;98635.53;5151195;27;43487;-76
2022/05/29 02:10:08;;;;;;;1.57;1.27;;;;;;;8.36;60.41;98673.44;5130361;27;38894;-74
2022/05/29 02:12:41;;;;;;;2.77;1.20;;;;;;;8.35;59.96;98659.38;5135165;27;41708;-75
2022/05/29 02:15:15;;;;;;;4.50;1.07;;;;;;;8.34;60.04;98662.94;5140127;27;42202;-76
2022/05/29 02:17:48;;;;;;;1.70;0.93;;;;;;;8.35;60.09;98659.38;5139015;27;43196;-75
2022/05/29 02:20:21;;;;;;;1.27;1.17;;;;;;;8.28;60.02;98650.91;5139222;27;38912;-75
2022/05/29 02:22:54;;;;;;;1.30;0.97;;;;;;;8.18;59.60;98636.53;5139312;27;40967;-76
2022/05/29 02:25:25;;;;;;;1.37;0.90;;;;;;;8.27;60.16;98654.50;5129897;27;43765;-77
2022/05/29 02:27:58;;;;;;;2.00;1.10;;;;;;;8.25;60.47;98652.88;5132424;27;42094;-76
2022/05/29 02:30:35;;;;;;;2.37;0.80;;;;;;;8.21;61.24;98652.22;5128952;27;40718;-76
2022/05/29 02:33:08;;;;;;;1.57;1.00;;;;;;;8.18;61.00;98643.59;5135678;27;43091;-77
2022/05/29 02:35:42;;;;;;;0.87;0.80;;;;;;;8.16;61.69;98638.41;5131418;27;41733;-79
2022/05/29 02:38:15;;;;;;;1.23;1.03;;;;;;;8.16;62.00;98643.69;5152477;27;42339;-76
2022/05/29 02:40:49;;;;;;;2.30;1.13;;;;;;;8.16;62.50;98633.13;5148564;27;39995;-77
2022/05/29 02:43:29;;;;;;;1.43;1.33;;;;;;;8.01;63.20;98602.38;5132497;27;40623;-77
2022/05/29 02:46:07;;;;;;;1.27;1.07;;;;;;;8.13;62.93;98628.06;5148365;27;43469;-77
2022/05/29 02:48:45;;;;;;;1.87;0.87;;;;;;;8.10;62.96;98627.38;5134144;27;41084;-75
2022/05/29 02:51:22;;;;;;;2.50;1.03;;;;;;;8.07;63.34;98617.84;5152003;27;40483;-77
2022/05/29 02:53:50;;;;;;;1.10;1.00;;;;;;;8.07;64.07;98617.84;5134537;27;41083;-75
2022/05/29 02:56:18;;;;;;;2.30;0.90;;;;;;;8.04;63.84;98611.88;5152333;27;42950;-77
2022/05/29 02:58:49;;;;;;;1.27;0.93;;;;;;;8.04;64.26;98612.72;5153836;27;43165;-75
2022/05/29 03:01:26;;;;;;;2.33;1.10;;;;;;;8.06;63.92;98610.84;5134477;27;39777;-76
2022/05/29 03:04:13;;;;;;;0.80;0.80;;;;;;;8.03;64.01;98611.06;5150546;27;41729;-77
2022/05/29 03:06:46;;;;;;;0.80;0.80;;;;;;;8.02;63.41;98612.00;5135035;27;41780;-74
2022/05/29 03:09:39;;;;;;;0.83;0.83;;;;;;;8.00;63.34;98616.50;5134862;27;41494;-77
2022/05/29 03:12:18;;;;;;;1.07;0.83;;;;;;;7.98;63.40;98613.09;5148678;27;40561;-75
2022/05/29 03:14:54;;;;;;;1.30;1.20;;;;;;;7.97;63.58;98613.16;5134053;27;41104;-76
2022/05/29 03:17:29;;;;;;;1.40;1.00;;;;;;;7.97;63.35;98621.06;5150335;27;43258;-76
2022/05/29 03:20:09;;;;;;;2.60;1.10;;;;;;;7.94;63.09;98606.28;5149141;27;43020;-78
2022/05/29 03:22:57;;;;;;;0.63;0.60;;;;;;;8.05;62.81;98622.34;5150833;27;40225;-77
2022/05/29 03:25:35;;;;;;;1.13;0.80;;;;;;;8.18;62.66;98620.72;5134598;27;41481;-76
2022/05/29 03:28:07;;;;;;;3.77;1.10;;;;;;;8.29;63.05;98617.47;5134389;27;41667;-76
2022/05/29 03:30:39;;;;;;;3.33;1.10;;;;;;;8.41;63.44;98615.94;5151469;27;42204;-75
2022/05/29 03:33:12;;;;;;;5.07;1.23;;;;;;;8.54;64.69;98606.38;5150988;27;39739;-78
2022/05/29 03:35:47;;;;;;;4.57;1.30;;;;;;;8.69;64.10;98610.78;5150333;27;41634;-78
2022/05/29 03:38:15;;;;;;;1.60;1.00;;;;;;;8.43;64.04;98542.81;5134176;27;43570;-75
2022/05/29 03:40:42;;;;;;;2.03;1.47;;;;;;;8.96;64.14;98605.66;5152022;27;42912;-78
2022/05/29 03:43:09;;;;;;;3.07;1.00;;;;;;;9.10;64.24;98599.53;5151542;27;38552;-75
2022/05/29 03:45:37;;;;;;;1.17;0.90;;;;;;;9.24;64.58;98592.47;5134483;27;41142;-75
2022/05/29 03:48:06;;;;;;;2.80;1.40;;;;;;;9.41;64.18;98594.06;5152435;27;42807;-76
2022/05/29 03:50:35;;;;;;;4.17;1.50;;;;;;;9.43;64.13;98565.75;5151599;27;42161;-78
2022/05/29 03:53:03;;;;;;;2.40;1.40;;;;;;;9.65;64.28;98584.59;5133759;27;41447;-78
2022/05/29 03:55:32;;;;;;;4.10;1.40;;;;;;;9.77;63.81;98584.81;5134243;27;40650;-77
2022/05/29 03:57:59;;;;;;;2.27;0.97;;;;;;;9.85;63.94;98587.78;5151269;27;42855;-75
2022/05/29 04:00:27;;;;;;;2.40;1.07;;;;;;;9.89;63.86;98578.72;5151734;27;43262;-77
2022/05/29 04:02:55;;;;;;;1.97;1.20;;;;;;;9.91;63.84;98582.94;5150886;27;40515;-76
2022/05/29 04:05:25;;;;;;;2.10;1.23;;;;;;;9.91;64.58;98579.44;5150941;27;40543;-79
2022/05/29 04:13:29;;;;;;;1.20;0.90;;;;;;;9.87;65.08;98564.75;5150645;27;40943;-76
2022/05/29 04:15:57;;;;;;;1.60;1.43;;;;;;;9.86;65.00;98569.19;5134075;27;42489;-78
2022/05/29 04:18:24;;;;;;;0.97;0.83;;;;;;;9.88;64.92;98567.28;5151041;27;41747;-76
2022/05/29 04:20:53;;;;;;;4.10;1.30;;;;;;;9.91;64.39;98571.50;5151369;27;42931;-78
2022/05/29 04:23:22;;;;;;;3.33;1.47;;;;;;;9.95;64.42;98562.44;5133736;27;38943;-76
2022/05/29 04:25:50;;;;;;;1.87;1.00;;;;;;;10.00;63.87;98563.00;5150956;27;42670;-78
2022/05/29 04:28:18;;;;;;;2.23;1.10;;;;;;;10.04;63.34;98561.84;5152087;27;42266;-77
2022/05/29 04:30:46;;;;;;;1.43;0.87;;;;;;;10.16;62.72;98566.34;5151315;27;42756;-76
2022/05/29 04:33:14;;;;;;;1.20;1.10;;;;;;;10.22;62.64;98560.69;5150852;27;41308;-74
2022/05/29 04:35:44;;;;;;;2.63;1.27;;;;;;;10.37;62.33;98559.69;5152719;27;42429;-75
2022/05/29 04:38:13;;;;;;;1.43;0.87;;;;;;;10.59;62.07;98567.03;5133231;27;41723;-77
2022/05/29 04:40:44;;;;;;;1.67;1.10;;;;;;;10.78;61.64;98569.28;5151996;27;43747;-77
2022/05/29 04:43:13;;;;;;;2.27;1.20;;;;;;;10.96;62.04;98560.09;5150573;27;41448;-77
2022/05/29 04:45:43;;;;;;;2.93;0.83;;;;;;;11.13;61.05;98575.66;5151114;27;41616;-77
2022/05/29 04:48:11;;;;;;;1.27;1.17;;;;;;;11.29;60.84;98574.59;5150453;27;42679;-75
2022/05/29 04:50:39;;;;;;;2.67;1.50;;;;;;;11.37;60.92;98572.28;5133927;27;41513;-77
2022/05/29 04:53:07;;;;;;;2.60;0.80;;;;;;;11.49;60.77;98584.66;5151888;27;39566;-78
2022/05/29 04:55:35;;;;;;;2.67;1.30;;;;;;;11.57;61.08;98589.41;5151957;27;43016;-77
2022/05/29 04:58:04;;;;;;;2.80;1.10;;;;;;;11.52;60.86;98560.56;5150408;27;42539;-77
2022/05/29 05:00:32;;;;;;;1.27;0.90;;;;;;;11.74;60.91;98581.97;5151837;27;43632;-75
2022/05/29 05:03:00;;;;;;;2.77;1.03;;;;;;;11.93;60.67;98575.34;5151504;27;40540;-76
2022/05/29 05:05:27;;;;;;;5.23;1.10;;;;;;;12.14;60.42;98573.78;5152031;27;41662;-76
2022/05/29 05:07:55;;;;;;;1.50;0.93;;;;;;;12.27;60.20;98577.22;5150516;27;41725;-76
2022/05/29 05:10:22;;;;;;;2.33;1.10;;;;;;;12.40;59.80;98579.81;5150485;27;43455;-76
2022/05/29 05:12:52;;;;;;;2.57;1.17;;;;;;;12.57;59.45;98577.63;5150333;27;40709;-76
2022/05/29 05:15:21;;;;;;;2.20;1.20;;;;;;;12.68;59.25;98581.28;5133138;27;40491;-75
2022/05/29 05:17:48;;;;;;;3.40;1.37;;;;;;;12.70;59.08;98577.53;5151294;27;43519;-78
2022/05/29 05:20:16;;;;;;;3.13;1.07;;;;;;;12.60;58.99;98563.25;5150755;27;43198;-76
2022/05/29 05:22:44;;;;;;;2.07;0.90;;;;;;;12.71;58.77;98578.38;5151753;27;40200;-74
2022/05/29 05:25:11;;;;;;;3.73;1.20;;;;;;;12.71;58.83;98571.25;5150495;27;42478;-76
2022/05/29 05:27:39;;;;;;;1.70;1.30;;;;;;;12.69;59.26;98569.69;5132563;27;42856;-75
2022/05/29 05:30:08;;;;;;;5.70;1.10;;;;;;;12.53;60.44;98562.84;5132665;27;42110;-76
2022/05/29 05:32:37;;;;;;;1.47;1.13;;;;;;;12.38;62.34;98552.53;5150552;27;39789;-75
2022/05/29 05:35:07;;;;;;;3.33;1.37;;;;;;;12.20;63.33;98541.50;5132411;27;40699;-75
2022/05/29 05:37:36;;;;;;;2.90;1.30;;;;;;;12.08;64.97;98545.06;5151356;27;41851;-75
2022/05/29 05:40:05;;;;;;;3.03;1.10;;;;;;;12.03;64.59;98545.38;5153284;27;42133;-76
2022/05/29 05:42:33;;;;;;;2.70;0.97;;;;;;;12.02;64.90;98548.97;5135305;27;38957;-75
2022/05/29 05:45:00;;;;;;;2.03;1.00;;;;;;;12.00;64.82;98550.03;5153134;27;42720;-75
2022/05/29 05:47:28;;;;;;;3.37;1.17;;;;;;;11.93;66.24;98540.84;5145871;27;42996;-76
2022/05/29 05:49:57;;;;;;;4.70;1.60;;;;;;;11.79;66.31;98548.00;5132239;27;40984;-77
2022/05/29 05:52:24;;;;;;;2.57;1.40;;;;;;;11.72;66.28;98549.38;5132057;27;39142;-75
2022/05/29 05:54:51;;;;;;;2.10;1.20;;;;;;;11.69;66.01;98546.94;5119831;27;41688;-76
2022/05/29 05:57:19;;;;;;;2.10;1.90;;;;;;;11.68;66.13;98549.72;5147431;27;42919;-75
2022/05/29 05:59:47;;;;;;;4.63;1.33;;;;;;;11.67;66.01;98551.50;5170482;27;42399;-75
2022/05/29 06:02:15;;;;;;;1.50;1.20;;;;;;;11.77;66.03;98555.22;5135325;27;41063;-76
2022/05/29 06:04:44;;;;;;;2.40;1.20;;;;;;;11.85;66.00;98557.34;5170601;27;42752;-75
2022/05/29 06:07:12;;;;;;;3.47;1.13;;;;;;;11.98;65.34;98563.47;5153657;27;43078;-76
2022/05/29 06:09:40;;;;;;;4.47;1.33;;;;;;;11.86;64.93;98522.75;5152655;27;41888;-77
2022/05/29 06:12:09;;;;;;;3.97;1.30;;;;;;;12.39;65.04;98560.38;5152899;27;41402;-77
2022/05/29 06:14:37;;;;;;;2.40;1.00;;;;;;;12.78;64.89;98576.94;5152814;27;43250;-76
2022/05/29 06:17:05;;;;;;;2.63;1.20;;;;;;;13.13;64.28;98583.06;5152504;27;42510;-75
2022/05/29 06:19:33;;;;;;;2.10;1.20;;;;;;;13.53;63.40;98594.16;5153933;27;42180;-76
2022/05/29 06:22:01;;;;;;;1.83;1.00;;;;;;;13.81;62.89;98584.81;5121454;27;39137;-74
2022/05/29 06:24:30;;;;;;;2.87;1.13;;;;;;;14.06;63.18;98597.00;5144426;27;42379;-77
2022/05/29 06:26:58;;;;;;;2.53;1.20;;;;;;;14.16;62.69;98602.44;5126037;27;41709;-77
2022/05/29 06:29:26;;;;;;;3.30;1.43;;;;;;;14.25;61.95;98602.53;5150513;27;41709;-75
2022/05/29 06:31:54;;;;;;;1.87;1.00;;;;;;;14.41;61.59;98611.97;5151439;27;38685;-76
2022/05/29 06:34:22;;;;;;;2.73;1.20;;;;;;;14.59;61.13;98605.09;5133363;27;43346;-74
2022/05/29 06:36:49;;;;;;;1.97;1.23;;;;;;;14.97;60.25;98615.22;5151523;27;43370;-76
2022/05/29 06:39:17;;;;;;;1.83;1.17;;;;;;;15.23;60.12;98616.53;5152942;27;42874;-76
2022/05/29 06:41:46;;;;;;;2.27;1.30;;;;;;;15.58;58.96;98610.03;5149236;27;39983;-75
2022/05/29 06:44:20;;;;;;;1.60;1.30;;;;;;;15.93;57.83;98615.81;5123775;27;42174;-74
2022/05/29 06:46:48;;;;;;;1.60;0.83;;;;;;;16.28;57.26;98614.50;5135354;27;41647;-74
2022/05/29 06:49:15;;;;;;;1.73;1.40;;;;;;;16.58;55.87;98627.75;5125018;27;42301;-74
2022/05/29 06:51:43;;;;;;;1.57;1.10;;;;;;;16.80;54.46;98627.53;5148629;27;40610;-76
2022/05/29 06:54:10;;;;;;;2.67;1.53;;;;;;;16.88;54.56;98608.94;5134222;27;41686;-75
2022/05/29 06:56:38;;;;;;;2.97;1.20;;;;;;;16.93;54.70;98615.72;5169455;27;42645;-76
2022/05/29 06:59:07;;;;;;;4.27;1.00;;;;;;;16.96;54.95;98615.41;5133531;27;41202;-74
2022/05/29 07:07:18;;;;;;;4.30;1.00;;;;;;;17.13;51.68;98628.94;5135345;27;42739;-74
2022/05/29 07:09:45;;;;;;;2.33;1.10;;;;;;;17.35;51.28;98643.81;5151268;27;42640;-74
2022/05/29 07:12:15;;;;;;;2.80;1.20;;;;;;;17.74;49.91;98643.75;5151062;27;39776;-74
2022/05/29 07:14:47;;;;;;;3.17;1.30;;;;;;;18.21;49.47;98648.06;5150572;27;40879;-75
2022/05/29 07:17:15;;;;;;;3.93;1.53;;;;;;;18.53;48.37;98657.50;5150056;27;42888;-74
2022/05/29 07:19:44;;;;;;;2.67;1.10;;;;;;;18.70;48.96;98659.38;5133669;27;43314;-74
2022/05/29 07:22:12;;;;;;;3.80;1.30;;;;;;;18.75;47.21;98670.50;5150692;27;40082;-77
2022/05/29 07:24:40;;;;;;;4.90;1.07;;;;;;;18.63;46.85;98669.88;5152247;27;41770;-75
2022/05/29 07:27:08;;;;;;;2.93;1.23;;;;;;;18.56;47.19;98667.91;5133368;27;41421;-75
2022/05/29 07:29:36;;;;;;;1.63;1.30;;;;;;;18.49;46.78;98674.88;5150386;27;42342;-75
2022/05/29 07:32:07;;;;;;;2.03;1.40;;;;;;;18.64;46.52;98670.72;5151953;27;40127;-76
2022/05/29 07:34:34;;;;;;;2.23;1.30;;;;;;;18.98;46.40;98671.72;5150727;27;43590;-75
2022/05/29 07:37:05;;;;;;;2.77;0.80;;;;;;;19.19;45.12;98681.31;5149497;27;42546;-75
2022/05/29 07:39:36;;;;;;;2.93;1.20;;;;;;;19.23;45.41;98671.94;5150694;27;44480;-76
2022/05/29 07:44:51;;;;;;;3.33;1.10;;;;;;;19.11;44.84;98683.94;5148703;27;41596;-77
2022/05/29 07:47:20;;;;;;;4.43;1.13;;;;;;;19.07;45.25;98671.78;5150839;27;41858;-74
2022/05/29 07:49:48;;;;;;;1.60;1.00;;;;;;;19.13;44.42;98682.78;5150840;27;42617;-75
2022/05/29 07:52:16;;;;;;;3.30;1.20;;;;;;;19.20;44.67;98672.25;5149973;27;40642;-74
2022/05/29 07:54:43;;;;;;;3.20;1.20;;;;;;;19.37;44.72;98674.09;5150682;27;40690;-75
2022/05/29 07:57:11;;;;;;;2.83;1.20;;;;;;;19.64;45.08;98665.94;5150315;27;42908;-74
2022/05/29 07:59:39;;;;;;;2.60;1.70;;;;;;;19.96;43.79;98669.81;5149996;27;42463;-75
2022/05/29 08:02:07;;;;;;;2.33;1.10;;;;;;;20.24;42.30;98678.53;5150072;27;40066;-75
2022/05/29 08:04:36;;;;;;;2.50;0.93;;;;;;;20.43;42.07;98687.19;5150442;27;41771;-75
2022/05/29 08:07:04;;;;;;;3.40;0.70;;;;;;;20.47;40.03;98706.56;5150673;27;42966;-78
2022/05/29 08:09:32;;;;;;;3.87;1.40;;;;;;;20.37;39.63;98695.94;5150518;27;44327;-75
2022/05/29 08:11:59;;;;;;;2.73;1.23;;;;;;;20.41;41.13;98691.91;5151375;27;39759;-74
2022/05/29 08:14:29;;;;;;;2.40;1.00;;;;;;;20.63;40.52;98689.63;5150471;27;41505;-77
2022/05/29 08:16:57;;;;;;;2.93;1.43;;;;;;;21.63;37.89;98708.31;5132576;27;44725;-77
2022/05/29 08:19:25;;;;;;;2.97;0.90;;;;;;;22.60;35.22;98698.31;5150663;27;41317;-76
2022/05/29 08:21:54;;;;;;;2.60;1.00;;;;;;;22.64;35.23;98713.13;5150377;27;40065;-78
2022/05/29 08:32:36;;;;;;;2.97;1.17;;;;;;;24.74;31.65;98713.19;5150238;27;38900;-79
2022/05/29 08:35:05;;;;;;;2.73;1.10;;;;;;;25.43;31.41;98719.00;5133507;27;41676;-79
2022/05/29 08:37:35;;;;;;;1.83;1.00;;;;;;;25.83;31.68;98701.25;5150489;27;42878;-77
2022/05/29 08:40:03;;;;;;;2.33;0.97;;;;;;;25.70;31.76;98704.69;5150727;27;42062;-80
2022/05/29 08:42:32;;;;;;;2.60;0.90;;;;;;;25.70;31.62;98722.84;5150436;27;39207;-76
2022/05/29 08:45:00;;;;;;;3.87;1.20;;;;;;;25.88;31.61;98712.31;5150465;27;42420;-78
2022/05/29 08:47:29;;;;;;;2.53;1.00;;;;;;;26.13;31.78;98705.41;5150518;27;43754;-76
2022/05/29 08:49:57;;;;;;;2.57;1.10;;;;;;;25.70;31.73;98714.69;5150753;27;42812;-78
2022/05/29 08:52:48;;;;;;;4.07;1.30;;;;;;;25.31;31.41;98705.13;5150657;27;40528;-79
2022/05/29 08:55:25;;;;;;;3.37;1.37;;;;;;;25.91;31.73;98705.66;5146471;27;41459;-76
2022/05/29 08:58:09;;;;;;;1.27;0.70;;;;;;;26.47;29.56;98717.34;5149889;27;42518;-79
2022/05/29 09:00:48;;;;;;;2.73;1.17;;;;;;;26.96;29.47;98716.31;5148698;27;42696;-76
2022/05/29 09:03:31;;;;;;;1.90;1.07;;;;;;;27.56;27.63;98725.53;5166956;27;40225;-79
2022/05/29 09:06:04;;;;;;;1.50;0.60;;;;;;;27.61;25.68;98737.44;5133456;27;41686;-81
2022/05/29 09:08:39;;;;;;;2.40;1.07;;;;;;;27.34;26.54;98725.63;5152229;27;43599;-77
2022/05/29 09:11:16;;;;;;;2.23;1.03;;;;;;;27.57;24.94;98735.34;5141837;27;41500;-80
2022/05/29 09:13:48;;;;;;;1.53;1.20;;;;;;;27.77;25.58;98733.47;5153662;27;40122;-77
2022/05/29 09:16:20;;;;;;;2.10;0.90;;;;;;;28.67;26.59;98710.97;5150901;27;41670;-76
2022/05/29 09:18:57;;;;;;;3.40;1.07;;;;;;;28.92;25.69;98722.84;5152380;27;42820;-77
2022/05/29 09:21:32;;;;;;;1.53;0.83;;;;;;;29.13;24.98;98721.69;5144954;27;42113;-79
2022/05/29 09:24:06;;;;;;;3.20;1.00;;;;;;;28.56;24.91;98720.59;5152380;27;40826;-77
2022/05/29 09:26:38;;;;;;;1.40;0.87;;;;;;;27.50;26.41;98717.09;5151330;27;41417;-73
2022/05/29 09:29:08;;;;;;;1.47;0.77;;;;;;;26.72;26.14;98707.63;5152505;27;43797;-78
2022/05/29 09:31:39;;;;;;;2.67;1.23;;;;;;;26.37;27.24;98687.84;5153111;27;41478;-80
2022/05/29 09:34:07;;;;;;;1.33;0.80;;;;;;;26.42;26.88;98692.69;5136472;27;41447;-77
2022/05/29 09:36:52;;;;;;;1.20;0.60;;;;;;;26.02;26.61;98702.41;5152820;27;42642;-77
2022/05/29 09:39:26;;;;;;;0.97;0.80;;;;;;;25.96;27.00;98693.19;5163342;27;43530;-76
2022/05/29 09:42:04;;;;;;;1.67;1.17;;;;;;;26.05;26.64;98685.75;5140066;27;42383;-79
2022/05/29 09:44:32;;;;;;;1.30;0.90;;;;;;;26.04;25.82;98700.34;5137282;27;39115;-78
2022/05/29 09:49:45;;;;;;;1.80;0.80;;;;;;;26.27;24.58;98702.78;5158434;27;41738;-78
2022/05/29 09:52:17;;;;;;;1.63;0.97;;;;;;;26.69;23.64;98710.78;5158604;27;41625;-77
2022/05/29 09:54:53;;;;;;;4.63;1.13;;;;;;;28.47;22.00;98681.03;5168246;27;40403;-79
2022/05/29 09:57:26;;;;;;;1.67;0.77;;;;;;;30.12;21.41;98720.16;5162629;27;43208;-79
2022/05/29 10:00:02;;;;;;;1.90;0.90;;;;;;;30.03;23.33;98677.81;5154465;27;43699;-80
2022/05/29 10:02:38;;;;;;;2.67;0.90;;;;;;;29.35;22.09;98710.41;5149170;27;41466;-80
2022/05/29 10:05:10;;;;;;;1.73;0.90;;;;;;;28.12;23.23;98671.47;5135025;27;39409;-77
2022/05/29 10:07:42;;;;;;;2.83;1.10;;;;;;;27.46;24.20;98691.34;5165011;27;41615;-79
2022/05/29 10:10:12;;;;;;;1.90;0.80;;;;;;;26.70;25.09;98679.84;5155720;27;43566;-78
2022/05/29 10:12:46;;;;;;;0.73;0.70;;;;;;;25.80;26.17;98671.78;5160406;27;41206;-78
2022/05/29 10:15:32;;;;;;;2.60;0.97;;;;;;;25.12;27.03;98664.25;5161463;27;40875;-79
2022/05/29 10:18:03;;;;;;;1.50;0.90;;;;;;;24.55;27.94;98657.75;5131858;27;40784;-80
2022/05/29 10:20:33;;;;;;;1.23;0.70;;;;;;;24.00;28.41;98628.47;5169044;27;42271;-79
2022/05/29 10:23:03;;;;;;;1.57;0.90;;;;;;;23.80;28.36;98657.94;5162358;27;42034;-79
2022/05/29 10:25:34;;;;;;;2.47;0.80;;;;;;;23.56;28.10;98644.66;5158142;27;40066;-80
2022/05/29 10:28:11;;;;;;;1.90;0.90;;;;;;;23.44;28.55;98638.81;5133994;27;41850;-80
2022/05/29 10:30:45;;;;;;;1.37;0.80;;;;;;;23.31;29.13;98600.78;5166126;27;42744;-79
2022/05/29 10:33:20;;;;;;;1.43;0.83;;;;;;;24.08;27.43;98652.75;5151672;27;43202;-79
2022/05/29 10:35:49;;;;;;;1.43;0.90;;;;;;;24.01;27.96;98592.28;5150749;27;41741;-77
2022/05/29 10:38:26;;;;;;;1.33;0.80;;;;;;;24.73;26.71;98651.91;5156226;27;42917;-76
2022/05/29 10:40:56;;;;;;;1.93;1.00;;;;;;;25.08;26.72;98649.44;5148800;27;43008;-79
2022/05/29 10:43:43;;;;;;;1.80;1.17;;;;;;;25.69;27.65;98631.63;5165259;27;42914;-79
2022/05/29 10:46:18;;;;;;;4.77;1.10;;;;;;;26.21;27.75;98565.16;5139419;27;40683;-76
2022/05/29 10:49:35;;;;;;;4.23;1.00;;;;;;;27.26;26.39;98636.09;5168282;27;42059;-78
2022/05/29 10:52:23;;;;;;;2.23;0.93;;;;;;;27.53;26.13;98637.78;5152536;27;41710;-83
2022/05/29 10:55:23;;;;;;;2.00;0.70;;;;;;;27.53;24.47;98645.97;5148017;27;41370;-79
2022/05/29 10:58:07;;;;;;;2.70;0.97;;;;;;;27.09;24.77;98623.94;5122277;27;41028;-79
2022/05/29 11:00:54;;;;;;;2.93;0.80;;;;;;;27.53;25.95;98626.91;5138281;27;42039;-75
2022/05/29 11:03:41;;;;;;;1.87;0.90;;;;;;;27.14;25.13;98643.19;5143842;27;42792;-77
2022/05/29 11:06:50;;;;;;;2.03;0.90;;;;;;;26.50;26.27;98626.47;5149578;27;43188;-80
2022/05/29 11:09:48;;;;;;;1.40;0.70;;;;;;;25.84;26.62;98616.06;5132908;27;39532;-79
2022/05/29 11:12:25;;;;;;;1.43;0.90;;;;;;;25.85;26.48;98609.59;5151932;27;41708;-74
2022/05/29 11:15:12;;;;;;;2.57;0.83;;;;;;;26.30;27.71;98610.94;5143951;27;44524;-81
2022/05/29 11:17:52;;;;;;;1.60;0.80;;;;;;;26.58;27.59;98610.00;5166522;27;42402;-75
2022/05/29 11:20:37;;;;;;;1.23;0.80;;;;;;;26.96;27.37;98591.28;5152756;27;39949;-75
2022/05/29 11:23:18;;;;;;;1.63;0.80;;;;;;;27.42;25.39;98621.28;5168095;27;40877;-77
2022/05/29 11:25:56;;;;;;;1.50;0.90;;;;;;;26.97;25.18;98620.16;5164035;27;43519;-77
2022/05/29 11:28:37;;;;;;;1.77;0.70;;;;;;;26.92;25.87;98606.34;5161829;27;43290;-76
2022/05/29 11:31:17;;;;;;;1.37;0.60;;;;;;;26.76;24.96;98613.81;5167741;27;40268;-74
2022/05/29 11:34:03;;;;;;;1.60;0.97;;;;;;;26.73;25.18;98614.22;5150084;27;43858;-80
2022/05/29 11:36:48;;;;;;;2.53;1.17;;;;;;;26.77;26.01;98604.63;5164776;27;43391;-72
2022/05/29 11:39:30;;;;;;;1.70;1.00;;;;;;;26.88;25.32;98591.47;5159370;27;42174;-80
2022/05/29 11:42:07;;;;;;;1.30;0.73;;;;;;;26.94;24.88;98604.28;5151346;27;39281;-76
2022/05/29 11:44:42;;;;;;;1.70;0.77;;;;;;;26.66;24.95;98597.06;5151781;27;42408;-77
2022/05/29 11:53:21;;;;;;;2.47;1.70;;;;;;;26.29;26.22;98578.56;5130537;27;40160;-80
2022/05/29 11:55:50;;;;;;;1.50;0.80;;;;;;;26.28;26.61;98579.59;5134754;27;40761;-84
2022/05/29 11:58:23;;;;;;;1.33;0.87;;;;;;;26.83;26.25;98565.75;5134901;27;41453;-83
2022/05/29 12:00:55;;;;;;;3.50;1.00;;;;;;;28.43;25.64;98573.56;5150276;27;42548;-79
2022/05/29 12:03:39;;;;;;;1.13;0.70;;;;;;;28.76;24.04;98589.72;5152759;27;39987;-78
2022/05/29 12:06:14;;;;;;;1.03;0.70;;;;;;;28.68;22.75;98592.72;5133983;27;40808;-78
2022/05/29 12:08:51;;;;;;;1.13;0.63;;;;;;;28.58;23.44;98589.59;5151589;27;44482;-77
2022/05/29 12:11:44;;;;;;;2.47;0.80;;;;;;;28.35;23.73;98586.56;5151232;27;41567;-76
2022/05/29 12:14:18;;;;;;;2.53;1.03;;;;;;;27.81;23.35;98564.13;5131845;27;39750;-77
2022/05/29 12:16:49;;;;;;;1.93;1.23;;;;;;;27.25;23.99;98596.34;5148556;27;41938;-77
2022/05/29 12:19:20;;;;;;;4.83;1.60;;;;;;;26.55;25.65;98578.66;5150916;27;41362;-77
2022/05/29 12:21:53;;;;;;;1.40;0.73;;;;;;;25.76;26.01;98557.41;5150141;27;43070;-76
2022/05/29 12:24:23;;;;;;;1.13;0.67;;;;;;;25.08;26.54;98568.97;5151689;27;39830;-77
2022/05/29 12:26:54;;;;;;;1.50;0.80;;;;;;;24.39;27.50;98571.34;5151734;27;41685;-77
2022/05/29 12:29:27;;;;;;;1.70;0.70;;;;;;;23.59;28.72;98514.53;5149282;27;43540;-79
2022/05/29 12:31:59;;;;;;;1.60;0.77;;;;;;;23.45;28.50;98564.84;5134204;27;41015;-75
2022/05/29 12:34:30;;;;;;;2.40;0.90;;;;;;;23.04;28.97;98567.06;5149493;27;39995;-76
2022/05/29 12:37:38;;;;;;;2.23;0.90;;;;;;;22.67;28.61;98569.69;5151452;27;42646;-75